sensor_id;sensor_type;location;lat;lon;timestamp;P1;durP1;ratioP1;P2;durP2;ratioP2
79747;SDS011;69232;47.488;19.268;2023-06-01T00:00:49;9.43;;;3.35;;
79747;SDS011;69232;47.488;19.268;2023-06-01T00:03:15;11.35;;;4.03;;
79747;SDS011;69232;47.488;19.268;2023-06-01T00:05:40;5.35;;;3.22;;
79747;SDS011;69232;47.488;19.268;2023-06-01T00:08:05;8.27;;;3.55;;
79747;SDS011;69232;47.488;19.268;2023-06-01T00:10:32;7.28;;;4.18;;
79747;SDS011;69232;47.488;19.268;2023-06-01T00:12:57;8.10;;;3.80;;
79747;SDS011;69232;47.488;19.268;2023-06-01T00:15:23;7.78;;;3.83;;
79747;SDS011;69232;47.488;19.268;2023-06-01T00:17:49;4.82;;;3.60;;
79747;SDS011;69232;47.488;19.268;2023-06-01T00:20:16;7.45;;;3.40;;
79747;SDS011;69232;47.488;19.268;2023-06-01T00:22:43;6.50;;;3.75;;
79747;SDS011;69232;47.488;19.268;2023-06-01T00:25:09;6.50;;;3.60;;
79747;SDS011;69232;47.488;19.268;2023-06-01T00:27:34;9.57;;;3.78;;
79747;SDS011;69232;47.488;19.268;2023-06-01T00:30:00;8.55;;;3.58;;
79747;SDS011;69232;47.488;19.268;2023-06-01T00:32:26;5.30;;;3.38;;
79747;SDS011;69232;47.488;19.268;2023-06-01T00:34:51;8.10;;;3.65;;
79747;SDS011;69232;47.488;19.268;2023-06-01T00:37:17;8.93;;;4.10;;
79747;SDS011;69232;47.488;19.268;2023-06-01T00:39:42;8.52;;;3.35;;
79747;SDS011;69232;47.488;19.268;2023-06-01T00:42:07;10.40;;;4.25;;
79747;SDS011;69232;47.488;19.268;2023-06-01T00:44:33;7.40;;;3.55;;
79747;SDS011;69232;47.488;19.268;2023-06-01T00:46:58;5.88;;;3.45;;
79747;SDS011;69232;47.488;19.268;2023-06-01T00:49:24;7.05;;;3.88;;
79747;SDS011;69232;47.488;19.268;2023-06-01T00:51:50;5.28;;;3.47;;
79747;SDS011;69232;47.488;19.268;2023-06-01T00:54:16;10.55;;;4.28;;
79747;SDS011;69232;47.488;19.268;2023-06-01T00:56:42;7.68;;;3.47;;
79747;SDS011;69232;47.488;19.268;2023-06-01T00:59:07;7.53;;;4.15;;
79747;SDS011;69232;47.488;19.268;2023-06-01T01:01:33;6.93;;;3.83;;
79747;SDS011;69232;47.488;19.268;2023-06-01T01:03:58;7.28;;;4.18;;
79747;SDS011;69232;47.488;19.268;2023-06-01T01:09:38;10.35;;;3.65;;
79747;SDS011;69232;47.488;19.268;2023-06-01T01:12:17;7.53;;;3.90;;
79747;SDS011;69232;47.488;19.268;2023-06-01T01:14:48;7.68;;;3.92;;
79747;SDS011;69232;47.488;19.268;2023-06-01T01:17:18;8.20;;;3.70;;
79747;SDS011;69232;47.488;19.268;2023-06-01T01:20:08;8.43;;;4.68;;
79747;SDS011;69232;47.488;19.268;2023-06-01T01:31:01;8.55;;;3.97;;
79747;SDS011;69232;47.488;19.268;2023-06-01T01:33:28;9.02;;;4.35;;
79747;SDS011;69232;47.488;19.268;2023-06-01T01:35:54;8.85;;;4.45;;
79747;SDS011;69232;47.488;19.268;2023-06-01T01:38:20;7.70;;;4.50;;
79747;SDS011;69232;47.488;19.268;2023-06-01T01:40:46;6.60;;;3.60;;
79747;SDS011;69232;47.488;19.268;2023-06-01T01:43:11;9.88;;;4.28;;
79747;SDS011;69232;47.488;19.268;2023-06-01T01:45:37;8.55;;;4.10;;
79747;SDS011;69232;47.488;19.268;2023-06-01T01:50:51;8.10;;;3.70;;
79747;SDS011;69232;47.488;19.268;2023-06-01T01:53:19;8.07;;;3.97;;
79747;SDS011;69232;47.488;19.268;2023-06-01T01:55:46;8.60;;;4.68;;
79747;SDS011;69232;47.488;19.268;2023-06-01T01:58:13;7.53;;;4.40;;
79747;SDS011;69232;47.488;19.268;2023-06-01T02:00:40;6.50;;;3.92;;
79747;SDS011;69232;47.488;19.268;2023-06-01T02:03:12;6.32;;;3.95;;
79747;SDS011;69232;47.488;19.268;2023-06-01T02:05:41;7.97;;;4.07;;
79747;SDS011;69232;47.488;19.268;2023-06-01T02:08:07;7.60;;;4.13;;
79747;SDS011;69232;47.488;19.268;2023-06-01T02:10:33;10.13;;;4.60;;
79747;SDS011;69232;47.488;19.268;2023-06-01T02:12:58;5.70;;;3.40;;
79747;SDS011;69232;47.488;19.268;2023-06-01T02:15:24;6.65;;;3.72;;
79747;SDS011;69232;47.488;19.268;2023-06-01T02:17:50;7.35;;;4.03;;
79747;SDS011;69232;47.488;19.268;2023-06-01T02:20:16;7.05;;;4.40;;
79747;SDS011;69232;47.488;19.268;2023-06-01T02:22:42;8.25;;;4.03;;
79747;SDS011;69232;47.488;19.268;2023-06-01T02:25:07;6.28;;;3.72;;
79747;SDS011;69232;47.488;19.268;2023-06-01T02:27:33;9.13;;;3.85;;
79747;SDS011;69232;47.488;19.268;2023-06-01T02:29:58;7.38;;;3.72;;
79747;SDS011;69232;47.488;19.268;2023-06-01T02:32:24;10.57;;;4.07;;
79747;SDS011;69232;47.488;19.268;2023-06-01T02:34:50;6.65;;;3.53;;
79747;SDS011;69232;47.488;19.268;2023-06-01T02:37:15;6.13;;;4.05;;
79747;SDS011;69232;47.488;19.268;2023-06-01T02:39:41;5.22;;;3.55;;
79747;SDS011;69232;47.488;19.268;2023-06-01T02:42:07;9.00;;;3.83;;
79747;SDS011;69232;47.488;19.268;2023-06-01T02:44:32;7.68;;;3.78;;
79747;SDS011;69232;47.488;19.268;2023-06-01T02:46:58;8.52;;;4.15;;
79747;SDS011;69232;47.488;19.268;2023-06-01T02:49:23;6.68;;;3.90;;
79747;SDS011;69232;47.488;19.268;2023-06-01T02:51:49;8.00;;;3.85;;
79747;SDS011;69232;47.488;19.268;2023-06-01T02:54:14;7.57;;;4.07;;
79747;SDS011;69232;47.488;19.268;2023-06-01T02:56:40;7.60;;;3.58;;
79747;SDS011;69232;47.488;19.268;2023-06-01T02:59:05;8.02;;;3.55;;
79747;SDS011;69232;47.488;19.268;2023-06-01T03:01:31;7.00;;;3.80;;
79747;SDS011;69232;47.488;19.268;2023-06-01T03:04:01;7.95;;;4.20;;
79747;SDS011;69232;47.488;19.268;2023-06-01T03:06:29;10.13;;;3.78;;
79747;SDS011;69232;47.488;19.268;2023-06-01T03:08:57;9.98;;;4.43;;
79747;SDS011;69232;47.488;19.268;2023-06-01T03:11:23;7.30;;;3.70;;
79747;SDS011;69232;47.488;19.268;2023-06-01T03:13:48;11.15;;;3.67;;
79747;SDS011;69232;47.488;19.268;2023-06-01T03:16:15;7.38;;;4.38;;
79747;SDS011;69232;47.488;19.268;2023-06-01T03:18:41;6.63;;;3.30;;
79747;SDS011;69232;47.488;19.268;2023-06-01T03:21:07;6.35;;;3.65;;
79747;SDS011;69232;47.488;19.268;2023-06-01T03:23:32;7.38;;;3.45;;
79747;SDS011;69232;47.488;19.268;2023-06-01T03:25:58;7.55;;;3.88;;
79747;SDS011;69232;47.488;19.268;2023-06-01T03:28:24;13.00;;;3.97;;
79747;SDS011;69232;47.488;19.268;2023-06-01T03:30:49;12.40;;;3.90;;
79747;SDS011;69232;47.488;19.268;2023-06-01T03:33:16;17.25;;;5.00;;
79747;SDS011;69232;47.488;19.268;2023-06-01T03:35:41;13.60;;;4.32;;
79747;SDS011;69232;47.488;19.268;2023-06-01T03:38:09;8.77;;;3.55;;
79747;SDS011;69232;47.488;19.268;2023-06-01T03:40:34;8.35;;;3.85;;
79747;SDS011;69232;47.488;19.268;2023-06-01T03:43:00;7.53;;;3.15;;
79747;SDS011;69232;47.488;19.268;2023-06-01T03:45:26;17.15;;;4.32;;
79747;SDS011;69232;47.488;19.268;2023-06-01T03:47:51;6.75;;;3.33;;
79747;SDS011;69232;47.488;19.268;2023-06-01T03:50:16;5.72;;;3.47;;
79747;SDS011;69232;47.488;19.268;2023-06-01T03:52:42;9.55;;;3.97;;
79747;SDS011;69232;47.488;19.268;2023-06-01T03:55:07;8.27;;;3.40;;
79747;SDS011;69232;47.488;19.268;2023-06-01T03:57:35;6.90;;;3.53;;
79747;SDS011;69232;47.488;19.268;2023-06-01T04:00:02;13.23;;;4.25;;
79747;SDS011;69232;47.488;19.268;2023-06-01T04:02:33;11.35;;;3.67;;
79747;SDS011;69232;47.488;19.268;2023-06-01T04:05:01;7.78;;;3.50;;
79747;SDS011;69232;47.488;19.268;2023-06-01T04:07:26;10.05;;;3.80;;
79747;SDS011;69232;47.488;19.268;2023-06-01T04:09:51;9.98;;;4.18;;
79747;SDS011;69232;47.488;19.268;2023-06-01T04:12:17;8.63;;;4.10;;
79747;SDS011;69232;47.488;19.268;2023-06-01T04:14:42;7.18;;;3.65;;
79747;SDS011;69232;47.488;19.268;2023-06-01T04:17:07;7.97;;;4.15;;
79747;SDS011;69232;47.488;19.268;2023-06-01T04:19:37;10.00;;;3.30;;
79747;SDS011;69232;47.488;19.268;2023-06-01T04:22:03;6.38;;;3.70;;
79747;SDS011;69232;47.488;19.268;2023-06-01T04:24:28;8.80;;;3.45;;
79747;SDS011;69232;47.488;19.268;2023-06-01T04:26:54;7.38;;;3.03;;
79747;SDS011;69232;47.488;19.268;2023-06-01T04:29:21;11.30;;;3.55;;
79747;SDS011;69232;47.488;19.268;2023-06-01T04:31:46;7.88;;;3.70;;
79747;SDS011;69232;47.488;19.268;2023-06-01T04:34:12;7.10;;;3.67;;
79747;SDS011;69232;47.488;19.268;2023-06-01T04:36:37;7.88;;;3.60;;
79747;SDS011;69232;47.488;19.268;2023-06-01T04:39:04;7.05;;;3.60;;
79747;SDS011;69232;47.488;19.268;2023-06-01T04:41:31;7.30;;;3.88;;
79747;SDS011;69232;47.488;19.268;2023-06-01T04:43:58;7.32;;;3.90;;
79747;SDS011;69232;47.488;19.268;2023-06-01T04:46:24;7.15;;;4.43;;
79747;SDS011;69232;47.488;19.268;2023-06-01T04:48:54;10.70;;;3.33;;
79747;SDS011;69232;47.488;19.268;2023-06-01T04:51:24;9.95;;;4.03;;
79747;SDS011;69232;47.488;19.268;2023-06-01T04:53:52;9.90;;;4.20;;
79747;SDS011;69232;47.488;19.268;2023-06-01T04:56:18;9.23;;;3.88;;
79747;SDS011;69232;47.488;19.268;2023-06-01T04:58:45;10.30;;;3.92;;
79747;SDS011;69232;47.488;19.268;2023-06-01T05:01:12;8.90;;;3.40;;
79747;SDS011;69232;47.488;19.268;2023-06-01T05:03:41;8.60;;;3.33;;
79747;SDS011;69232;47.488;19.268;2023-06-01T05:06:08;9.32;;;4.75;;
79747;SDS011;69232;47.488;19.268;2023-06-01T05:08:41;7.43;;;4.05;;
79747;SDS011;69232;47.488;19.268;2023-06-01T05:11:07;14.30;;;5.50;;
79747;SDS011;69232;47.488;19.268;2023-06-01T05:13:36;7.57;;;4.30;;
79747;SDS011;69232;47.488;19.268;2023-06-01T05:16:03;13.93;;;5.15;;
79747;SDS011;69232;47.488;19.268;2023-06-01T05:18:29;7.70;;;3.83;;
79747;SDS011;69232;47.488;19.268;2023-06-01T05:20:55;8.65;;;3.92;;
79747;SDS011;69232;47.488;19.268;2023-06-01T05:23:20;11.25;;;3.97;;
79747;SDS011;69232;47.488;19.268;2023-06-01T05:25:45;11.38;;;3.83;;
79747;SDS011;69232;47.488;19.268;2023-06-01T05:28:11;14.90;;;4.60;;
79747;SDS011;69232;47.488;19.268;2023-06-01T05:30:36;9.57;;;4.00;;
79747;SDS011;69232;47.488;19.268;2023-06-01T05:33:02;12.88;;;3.75;;
79747;SDS011;69232;47.488;19.268;2023-06-01T05:35:28;13.38;;;4.32;;
79747;SDS011;69232;47.488;19.268;2023-06-01T05:37:54;10.90;;;4.45;;
79747;SDS011;69232;47.488;19.268;2023-06-01T05:40:19;11.90;;;4.90;;
79747;SDS011;69232;47.488;19.268;2023-06-01T05:42:45;12.23;;;3.22;;
79747;SDS011;69232;47.488;19.268;2023-06-01T05:45:10;5.60;;;3.45;;
79747;SDS011;69232;47.488;19.268;2023-06-01T05:47:36;10.57;;;2.72;;
79747;SDS011;69232;47.488;19.268;2023-06-01T05:50:01;6.22;;;2.60;;
79747;SDS011;69232;47.488;19.268;2023-06-01T05:52:27;7.30;;;2.47;;
79747;SDS011;69232;47.488;19.268;2023-06-01T05:54:52;8.77;;;3.15;;
79747;SDS011;69232;47.488;19.268;2023-06-01T05:57:19;8.80;;;2.53;;
79747;SDS011;69232;47.488;19.268;2023-06-01T05:59:45;6.50;;;1.98;;
79747;SDS011;69232;47.488;19.268;2023-06-01T06:02:11;5.18;;;2.22;;
79747;SDS011;69232;47.488;19.268;2023-06-01T06:04:37;9.30;;;2.13;;
79747;SDS011;69232;47.488;19.268;2023-06-01T06:07:03;6.57;;;2.50;;
79747;SDS011;69232;47.488;19.268;2023-06-01T06:09:28;6.63;;;2.28;;
79747;SDS011;69232;47.488;19.268;2023-06-01T06:11:54;8.18;;;2.25;;
79747;SDS011;69232;47.488;19.268;2023-06-01T06:14:19;3.28;;;2.15;;
79747;SDS011;69232;47.488;19.268;2023-06-01T06:16:44;7.05;;;2.30;;
79747;SDS011;69232;47.488;19.268;2023-06-01T06:19:10;8.93;;;2.35;;
79747;SDS011;69232;47.488;19.268;2023-06-01T06:21:37;4.28;;;2.35;;
79747;SDS011;69232;47.488;19.268;2023-06-01T06:24:02;4.28;;;2.05;;
79747;SDS011;69232;47.488;19.268;2023-06-01T06:26:28;6.47;;;2.33;;
79747;SDS011;69232;47.488;19.268;2023-06-01T06:28:54;5.80;;;1.77;;
79747;SDS011;69232;47.488;19.268;2023-06-01T06:31:20;2.70;;;1.60;;
79747;SDS011;69232;47.488;19.268;2023-06-01T06:33:46;5.38;;;2.10;;
79747;SDS011;69232;47.488;19.268;2023-06-01T06:36:11;5.03;;;1.85;;
79747;SDS011;69232;47.488;19.268;2023-06-01T06:38:36;4.35;;;1.77;;
79747;SDS011;69232;47.488;19.268;2023-06-01T06:41:02;3.22;;;1.70;;
79747;SDS011;69232;47.488;19.268;2023-06-01T06:43:27;9.07;;;1.83;;
79747;SDS011;69232;47.488;19.268;2023-06-01T06:45:53;6.57;;;1.90;;
79747;SDS011;69232;47.488;19.268;2023-06-01T06:48:18;5.95;;;1.85;;
79747;SDS011;69232;47.488;19.268;2023-06-01T06:50:44;4.05;;;1.92;;
79747;SDS011;69232;47.488;19.268;2023-06-01T06:53:10;5.15;;;1.70;;
79747;SDS011;69232;47.488;19.268;2023-06-01T06:55:36;5.38;;;2.30;;
79747;SDS011;69232;47.488;19.268;2023-06-01T06:58:01;4.25;;;1.60;;
79747;SDS011;69232;47.488;19.268;2023-06-01T07:00:27;4.30;;;1.90;;
79747;SDS011;69232;47.488;19.268;2023-06-01T07:02:52;3.63;;;1.83;;
79747;SDS011;69232;47.488;19.268;2023-06-01T07:05:18;3.47;;;1.83;;
79747;SDS011;69232;47.488;19.268;2023-06-01T07:07:44;5.25;;;2.20;;
79747;SDS011;69232;47.488;19.268;2023-06-01T07:10:09;5.70;;;1.70;;
79747;SDS011;69232;47.488;19.268;2023-06-01T07:12:35;4.07;;;1.85;;
79747;SDS011;69232;47.488;19.268;2023-06-01T07:15:01;8.48;;;2.83;;
79747;SDS011;69232;47.488;19.268;2023-06-01T07:17:26;10.82;;;2.00;;
79747;SDS011;69232;47.488;19.268;2023-06-01T07:19:52;4.25;;;2.00;;
79747;SDS011;69232;47.488;19.268;2023-06-01T07:22:17;3.70;;;1.98;;
79747;SDS011;69232;47.488;19.268;2023-06-01T07:24:45;5.32;;;1.83;;
79747;SDS011;69232;47.488;19.268;2023-06-01T07:27:10;6.53;;;1.95;;
79747;SDS011;69232;47.488;19.268;2023-06-01T07:29:36;6.30;;;1.95;;
79747;SDS011;69232;47.488;19.268;2023-06-01T07:32:01;4.68;;;2.00;;
79747;SDS011;69232;47.488;19.268;2023-06-01T07:34:27;4.18;;;2.03;;
79747;SDS011;69232;47.488;19.268;2023-06-01T07:36:53;6.82;;;2.40;;
79747;SDS011;69232;47.488;19.268;2023-06-01T07:39:20;5.47;;;2.15;;
79747;SDS011;69232;47.488;19.268;2023-06-01T07:41:45;9.77;;;2.50;;
79747;SDS011;69232;47.488;19.268;2023-06-01T07:44:11;5.40;;;1.90;;
79747;SDS011;69232;47.488;19.268;2023-06-01T07:46:37;3.22;;;1.85;;
79747;SDS011;69232;47.488;19.268;2023-06-01T07:49:03;5.55;;;2.30;;
79747;SDS011;69232;47.488;19.268;2023-06-01T07:51:28;10.95;;;2.70;;
79747;SDS011;69232;47.488;19.268;2023-06-01T07:53:54;5.80;;;2.58;;
79747;SDS011;69232;47.488;19.268;2023-06-01T07:56:24;4.20;;;2.08;;
79747;SDS011;69232;47.488;19.268;2023-06-01T07:58:52;3.78;;;2.10;;
79747;SDS011;69232;47.488;19.268;2023-06-01T08:01:20;5.63;;;2.00;;
79747;SDS011;69232;47.488;19.268;2023-06-01T08:03:45;5.40;;;2.28;;
79747;SDS011;69232;47.488;19.268;2023-06-01T08:06:11;9.27;;;2.65;;
79747;SDS011;69232;47.488;19.268;2023-06-01T08:08:37;8.65;;;2.00;;
79747;SDS011;69232;47.488;19.268;2023-06-01T08:11:04;6.75;;;2.13;;
79747;SDS011;69232;47.488;19.268;2023-06-01T08:13:29;4.38;;;2.08;;
79747;SDS011;69232;47.488;19.268;2023-06-01T08:15:55;6.70;;;2.42;;
79747;SDS011;69232;47.488;19.268;2023-06-01T08:18:20;4.25;;;2.20;;
79747;SDS011;69232;47.488;19.268;2023-06-01T08:20:47;6.10;;;2.38;;
79747;SDS011;69232;47.488;19.268;2023-06-01T08:23:13;3.83;;;2.03;;
79747;SDS011;69232;47.488;19.268;2023-06-01T08:25:41;5.95;;;3.05;;
79747;SDS011;69232;47.488;19.268;2023-06-01T08:28:07;4.85;;;2.10;;
79747;SDS011;69232;47.488;19.268;2023-06-01T08:30:33;6.88;;;2.58;;
79747;SDS011;69232;47.488;19.268;2023-06-01T08:32:58;4.68;;;2.03;;
79747;SDS011;69232;47.488;19.268;2023-06-01T08:35:24;5.07;;;2.72;;
79747;SDS011;69232;47.488;19.268;2023-06-01T08:37:50;6.05;;;2.15;;
79747;SDS011;69232;47.488;19.268;2023-06-01T08:40:15;6.68;;;2.65;;
79747;SDS011;69232;47.488;19.268;2023-06-01T08:45:10;6.85;;;2.15;;
79747;SDS011;69232;47.488;19.268;2023-06-01T08:47:36;6.13;;;2.67;;
79747;SDS011;69232;47.488;19.268;2023-06-01T08:50:03;7.60;;;2.40;;
79747;SDS011;69232;47.488;19.268;2023-06-01T08:52:29;5.30;;;2.20;;
79747;SDS011;69232;47.488;19.268;2023-06-01T08:55:03;6.00;;;2.35;;
79747;SDS011;69232;47.488;19.268;2023-06-01T08:57:30;7.70;;;2.47;;
79747;SDS011;69232;47.488;19.268;2023-06-01T08:59:55;5.32;;;2.75;;
79747;SDS011;69232;47.488;19.268;2023-06-01T09:02:25;7.13;;;2.25;;
79747;SDS011;69232;47.488;19.268;2023-06-01T09:04:51;7.60;;;2.35;;
79747;SDS011;69232;47.488;19.268;2023-06-01T09:07:19;6.00;;;2.42;;
79747;SDS011;69232;47.488;19.268;2023-06-01T09:09:45;5.57;;;2.70;;
79747;SDS011;69232;47.488;19.268;2023-06-01T09:12:21;11.82;;;2.45;;
79747;SDS011;69232;47.488;19.268;2023-06-01T09:17:36;5.20;;;2.10;;
79747;SDS011;69232;47.488;19.268;2023-06-01T09:20:02;5.88;;;2.33;;
79747;SDS011;69232;47.488;19.268;2023-06-01T09:22:37;3.60;;;1.95;;
79747;SDS011;69232;47.488;19.268;2023-06-01T09:25:04;3.97;;;2.70;;
79747;SDS011;69232;47.488;19.268;2023-06-01T09:27:30;8.70;;;2.40;;
79747;SDS011;69232;47.488;19.268;2023-06-01T09:30:10;5.60;;;2.22;;
79747;SDS011;69232;47.488;19.268;2023-06-01T09:32:36;8.18;;;2.50;;
79747;SDS011;69232;47.488;19.268;2023-06-01T09:35:01;5.78;;;2.42;;
79747;SDS011;69232;47.488;19.268;2023-06-01T09:37:28;8.43;;;2.40;;
79747;SDS011;69232;47.488;19.268;2023-06-01T09:39:53;4.95;;;2.50;;
79747;SDS011;69232;47.488;19.268;2023-06-01T09:42:24;8.07;;;2.50;;
79747;SDS011;69232;47.488;19.268;2023-06-01T09:44:55;7.03;;;3.00;;
79747;SDS011;69232;47.488;19.268;2023-06-01T09:47:39;6.38;;;2.33;;
79747;SDS011;69232;47.488;19.268;2023-06-01T09:50:04;6.53;;;2.60;;
79747;SDS011;69232;47.488;19.268;2023-06-01T09:52:30;7.38;;;2.85;;
79747;SDS011;69232;47.488;19.268;2023-06-01T09:54:56;4.55;;;2.53;;
79747;SDS011;69232;47.488;19.268;2023-06-01T09:57:30;9.65;;;2.90;;
79747;SDS011;69232;47.488;19.268;2023-06-01T09:59:56;10.05;;;2.88;;
79747;SDS011;69232;47.488;19.268;2023-06-01T10:02:22;16.10;;;3.72;;
79747;SDS011;69232;47.488;19.268;2023-06-01T10:04:53;6.15;;;2.60;;
79747;SDS011;69232;47.488;19.268;2023-06-01T10:07:23;7.70;;;3.08;;
79747;SDS011;69232;47.488;19.268;2023-06-01T10:09:51;7.25;;;3.22;;
79747;SDS011;69232;47.488;19.268;2023-06-01T10:12:21;9.50;;;2.92;;
79747;SDS011;69232;47.488;19.268;2023-06-01T10:14:48;6.75;;;2.97;;
79747;SDS011;69232;47.488;19.268;2023-06-01T10:17:14;8.13;;;2.80;;
79747;SDS011;69232;47.488;19.268;2023-06-01T10:19:42;7.40;;;2.67;;
79747;SDS011;69232;47.488;19.268;2023-06-01T10:22:08;4.72;;;2.70;;
79747;SDS011;69232;47.488;19.268;2023-06-01T10:24:35;9.00;;;3.15;;
79747;SDS011;69232;47.488;19.268;2023-06-01T10:30:08;9.35;;;3.00;;
79747;SDS011;69232;47.488;19.268;2023-06-01T10:35:05;9.35;;;3.22;;
79747;SDS011;69232;47.488;19.268;2023-06-01T10:37:37;6.95;;;2.95;;
79747;SDS011;69232;47.488;19.268;2023-06-01T10:40:10;4.93;;;2.78;;
79747;SDS011;69232;47.488;19.268;2023-06-01T10:42:49;11.65;;;2.75;;
79747;SDS011;69232;47.488;19.268;2023-06-01T10:47:59;6.88;;;3.10;;
79747;SDS011;69232;47.488;19.268;2023-06-01T10:50:25;6.75;;;3.00;;
79747;SDS011;69232;47.488;19.268;2023-06-01T10:52:50;9.25;;;3.08;;
79747;SDS011;69232;47.488;19.268;2023-06-01T10:57:44;4.47;;;3.00;;
79747;SDS011;69232;47.488;19.268;2023-06-01T11:00:18;9.02;;;3.22;;
79747;SDS011;69232;47.488;19.268;2023-06-01T11:02:54;6.43;;;3.60;;
79747;SDS011;69232;47.488;19.268;2023-06-01T11:08:02;7.85;;;3.00;;
79747;SDS011;69232;47.488;19.268;2023-06-01T11:13:16;7.80;;;3.90;;
79747;SDS011;69232;47.488;19.268;2023-06-01T11:18:44;5.85;;;3.40;;
79747;SDS011;69232;47.488;19.268;2023-06-01T11:21:20;6.93;;;3.55;;
79747;SDS011;69232;47.488;19.268;2023-06-01T11:23:47;5.03;;;3.00;;
79747;SDS011;69232;47.488;19.268;2023-06-01T11:26:14;6.60;;;3.40;;
79747;SDS011;69232;47.488;19.268;2023-06-01T11:28:44;10.25;;;3.80;;
79747;SDS011;69232;47.488;19.268;2023-06-01T11:31:11;7.30;;;3.40;;
79747;SDS011;69232;47.488;19.268;2023-06-01T11:33:38;10.23;;;3.30;;
79747;SDS011;69232;47.488;19.268;2023-06-01T11:36:05;6.85;;;3.22;;
79747;SDS011;69232;47.488;19.268;2023-06-01T11:38:35;8.05;;;3.47;;
79747;SDS011;69232;47.488;19.268;2023-06-01T11:41:04;8.48;;;3.63;;
79747;SDS011;69232;47.488;19.268;2023-06-01T11:43:30;8.50;;;3.97;;
79747;SDS011;69232;47.488;19.268;2023-06-01T11:46:02;10.05;;;3.92;;
79747;SDS011;69232;47.488;19.268;2023-06-01T11:48:28;5.38;;;3.78;;
79747;SDS011;69232;47.488;19.268;2023-06-01T11:50:54;8.80;;;3.60;;
79747;SDS011;69232;47.488;19.268;2023-06-01T11:53:23;7.53;;;3.45;;
79747;SDS011;69232;47.488;19.268;2023-06-01T11:55:49;6.68;;;2.63;;
79747;SDS011;69232;47.488;19.268;2023-06-01T11:58:25;8.38;;;3.97;;
79747;SDS011;69232;47.488;19.268;2023-06-01T12:00:54;8.55;;;3.30;;
79747;SDS011;69232;47.488;19.268;2023-06-01T12:03:21;4.82;;;3.03;;
79747;SDS011;69232;47.488;19.268;2023-06-01T12:05:46;9.30;;;3.70;;
79747;SDS011;69232;47.488;19.268;2023-06-01T12:08:17;6.32;;;3.80;;
79747;SDS011;69232;47.488;19.268;2023-06-01T12:10:46;8.02;;;2.97;;
79747;SDS011;69232;47.488;19.268;2023-06-01T12:13:12;8.63;;;3.33;;
79747;SDS011;69232;47.488;19.268;2023-06-01T12:15:41;8.18;;;3.70;;
79747;SDS011;69232;47.488;19.268;2023-06-01T12:18:07;5.97;;;3.50;;
79747;SDS011;69232;47.488;19.268;2023-06-01T12:20:34;5.72;;;3.05;;
79747;SDS011;69232;47.488;19.268;2023-06-01T12:25:34;5.22;;;2.95;;
79747;SDS011;69232;47.488;19.268;2023-06-01T12:28:00;7.40;;;3.20;;
79747;SDS011;69232;47.488;19.268;2023-06-01T12:30:26;8.98;;;3.90;;
79747;SDS011;69232;47.488;19.268;2023-06-01T12:32:52;5.07;;;3.25;;
79747;SDS011;69232;47.488;19.268;2023-06-01T12:35:17;7.85;;;3.30;;
79747;SDS011;69232;47.488;19.268;2023-06-01T12:37:43;7.10;;;3.47;;
79747;SDS011;69232;47.488;19.268;2023-06-01T12:40:08;11.05;;;3.92;;
79747;SDS011;69232;47.488;19.268;2023-06-01T12:42:35;9.00;;;3.80;;
79747;SDS011;69232;47.488;19.268;2023-06-01T12:45:01;10.02;;;3.30;;
79747;SDS011;69232;47.488;19.268;2023-06-01T12:47:33;6.55;;;3.88;;
79747;SDS011;69232;47.488;19.268;2023-06-01T12:50:07;10.40;;;3.50;;
79747;SDS011;69232;47.488;19.268;2023-06-01T12:52:35;8.35;;;3.78;;
79747;SDS011;69232;47.488;19.268;2023-06-01T12:55:00;8.13;;;3.50;;
79747;SDS011;69232;47.488;19.268;2023-06-01T12:57:28;9.93;;;4.32;;
79747;SDS011;69232;47.488;19.268;2023-06-01T12:59:54;7.90;;;4.13;;
79747;SDS011;69232;47.488;19.268;2023-06-01T13:02:20;7.90;;;3.78;;
79747;SDS011;69232;47.488;19.268;2023-06-01T13:04:45;10.15;;;3.47;;
79747;SDS011;69232;47.488;19.268;2023-06-01T13:07:11;8.18;;;3.40;;
79747;SDS011;69232;47.488;19.268;2023-06-01T13:09:36;5.55;;;3.30;;
79747;SDS011;69232;47.488;19.268;2023-06-01T13:12:02;6.90;;;3.35;;
79747;SDS011;69232;47.488;19.268;2023-06-01T13:14:28;9.30;;;3.85;;
79747;SDS011;69232;47.488;19.268;2023-06-01T13:16:55;8.43;;;3.95;;
79747;SDS011;69232;47.488;19.268;2023-06-01T13:19:20;9.13;;;3.75;;
79747;SDS011;69232;47.488;19.268;2023-06-01T13:21:46;12.43;;;3.35;;
79747;SDS011;69232;47.488;19.268;2023-06-01T13:24:12;9.60;;;3.75;;
79747;SDS011;69232;47.488;19.268;2023-06-01T13:26:38;7.30;;;3.28;;
79747;SDS011;69232;47.488;19.268;2023-06-01T13:29:03;6.38;;;3.38;;
79747;SDS011;69232;47.488;19.268;2023-06-01T13:31:31;7.40;;;4.05;;
79747;SDS011;69232;47.488;19.268;2023-06-01T13:33:58;5.82;;;3.85;;
79747;SDS011;69232;47.488;19.268;2023-06-01T13:36:23;6.57;;;3.75;;
79747;SDS011;69232;47.488;19.268;2023-06-01T13:38:49;7.57;;;4.07;;
79747;SDS011;69232;47.488;19.268;2023-06-01T13:41:14;7.22;;;3.85;;
79747;SDS011;69232;47.488;19.268;2023-06-01T13:43:40;8.63;;;3.63;;
79747;SDS011;69232;47.488;19.268;2023-06-01T13:46:05;6.50;;;3.78;;
79747;SDS011;69232;47.488;19.268;2023-06-01T13:48:33;9.93;;;4.13;;
79747;SDS011;69232;47.488;19.268;2023-06-01T13:50:58;8.40;;;4.03;;
79747;SDS011;69232;47.488;19.268;2023-06-01T13:53:24;9.25;;;3.67;;
79747;SDS011;69232;47.488;19.268;2023-06-01T13:55:49;8.02;;;3.65;;
79747;SDS011;69232;47.488;19.268;2023-06-01T13:58:15;10.35;;;3.53;;
79747;SDS011;69232;47.488;19.268;2023-06-01T14:00:40;8.35;;;3.72;;
79747;SDS011;69232;47.488;19.268;2023-06-01T14:03:06;7.13;;;3.83;;
79747;SDS011;69232;47.488;19.268;2023-06-01T14:05:32;9.02;;;4.15;;
79747;SDS011;69232;47.488;19.268;2023-06-01T14:07:57;6.95;;;3.83;;
79747;SDS011;69232;47.488;19.268;2023-06-01T14:10:23;7.78;;;3.47;;
79747;SDS011;69232;47.488;19.268;2023-06-01T14:12:48;7.75;;;3.80;;
79747;SDS011;69232;47.488;19.268;2023-06-01T14:15:13;11.05;;;3.70;;
79747;SDS011;69232;47.488;19.268;2023-06-01T14:17:39;8.55;;;3.88;;
79747;SDS011;69232;47.488;19.268;2023-06-01T14:20:04;8.20;;;3.55;;
79747;SDS011;69232;47.488;19.268;2023-06-01T14:22:30;9.15;;;3.45;;
79747;SDS011;69232;47.488;19.268;2023-06-01T14:24:55;6.10;;;3.70;;
79747;SDS011;69232;47.488;19.268;2023-06-01T14:27:21;7.07;;;4.07;;
79747;SDS011;69232;47.488;19.268;2023-06-01T14:29:46;9.55;;;3.50;;
79747;SDS011;69232;47.488;19.268;2023-06-01T14:32:12;5.55;;;3.13;;
79747;SDS011;69232;47.488;19.268;2023-06-01T14:34:37;8.93;;;3.97;;
79747;SDS011;69232;47.488;19.268;2023-06-01T14:37:03;5.78;;;3.53;;
79747;SDS011;69232;47.488;19.268;2023-06-01T14:39:32;9.52;;;3.65;;
79747;SDS011;69232;47.488;19.268;2023-06-01T14:41:57;8.25;;;3.67;;
79747;SDS011;69232;47.488;19.268;2023-06-01T14:44:22;6.85;;;3.83;;
79747;SDS011;69232;47.488;19.268;2023-06-01T14:46:48;6.95;;;3.25;;
79747;SDS011;69232;47.488;19.268;2023-06-01T14:49:16;7.28;;;3.38;;
79747;SDS011;69232;47.488;19.268;2023-06-01T14:51:41;8.75;;;4.32;;
79747;SDS011;69232;47.488;19.268;2023-06-01T14:54:07;6.07;;;3.72;;
79747;SDS011;69232;47.488;19.268;2023-06-01T14:56:32;6.75;;;3.40;;
79747;SDS011;69232;47.488;19.268;2023-06-01T14:58:58;7.22;;;3.97;;
79747;SDS011;69232;47.488;19.268;2023-06-01T15:01:23;9.13;;;3.85;;
79747;SDS011;69232;47.488;19.268;2023-06-01T15:03:51;8.10;;;4.13;;
79747;SDS011;69232;47.488;19.268;2023-06-01T15:06:17;6.47;;;3.40;;
79747;SDS011;69232;47.488;19.268;2023-06-01T15:08:42;7.43;;;3.60;;
79747;SDS011;69232;47.488;19.268;2023-06-01T15:11:07;9.10;;;4.13;;